sensor_id;sensor_type;location;lat;lon;timestamp;pressure;altitude;pressure_sealevel;temperature;humidity
50434;BME280;36361;38.954;-9.002;2023-04-03T00:00:27;101292.22;;;15.21;47.03
50434;BME280;36361;38.954;-9.002;2023-04-03T00:01:28;101293.53;;;15.00;47.43
50434;BME280;36361;38.954;-9.002;2023-04-03T00:02:28;101291.63;;;14.64;48.23
50434;BME280;36361;38.954;-9.002;2023-04-03T00:03:29;101295.88;;;14.78;48.47
50434;BME280;36361;38.954;-9.002;2023-04-03T00:04:30;101293.44;;;14.88;48.22
50434;BME280;36361;38.954;-9.002;2023-04-03T00:05:31;101303.03;;;14.97;48.01
50434;BME280;36361;38.954;-9.002;2023-04-03T00:06:32;101298.59;;;15.15;47.69
50434;BME280;36361;38.954;-9.002;2023-04-03T00:07:33;101285.50;;;15.17;47.54
50434;BME280;36361;38.954;-9.002;2023-04-03T00:08:33;101293.00;;;15.10;47.60
50434;BME280;36361;38.954;-9.002;2023-04-03T00:09:34;101297.84;;;15.07;48.38
50434;BME280;36361;38.954;-9.002;2023-04-03T00:10:36;101293.13;;;15.15;48.12
50434;BME280;36361;38.954;-9.002;2023-04-03T00:11:37;101290.09;;;15.04;47.95
50434;BME280;36361;38.954;-9.002;2023-04-03T00:12:37;101293.59;;;15.12;47.98
50434;BME280;36361;38.954;-9.002;2023-04-03T00:13:38;101289.19;;;14.92;47.98
50434;BME280;36361;38.954;-9.002;2023-04-03T00:14:39;101285.38;;;14.93;48.70
50434;BME280;36361;38.954;-9.002;2023-04-03T00:15:40;101285.00;;;14.90;49.37
50434;BME280;36361;38.954;-9.002;2023-04-03T00:16:41;101283.84;;;14.79;49.93
50434;BME280;36361;38.954;-9.002;2023-04-03T00:17:42;101281.28;;;14.84;50.40
50434;BME280;36361;38.954;-9.002;2023-04-03T00:18:43;101283.63;;;14.80;50.98
50434;BME280;36361;38.954;-9.002;2023-04-03T00:19:44;101280.69;;;14.64;51.10
50434;BME280;36361;38.954;-9.002;2023-04-03T00:20:44;101277.47;;;14.48;51.10
50434;BME280;36361;38.954;-9.002;2023-04-03T00:21:45;101284.16;;;14.52;50.52
50434;BME280;36361;38.954;-9.002;2023-04-03T00:22:46;101278.22;;;14.56;50.57
50434;BME280;36361;38.954;-9.002;2023-04-03T00:23:46;101273.84;;;14.73;50.71
50434;BME280;36361;38.954;-9.002;2023-04-03T00:24:47;101270.56;;;14.83;50.29
50434;BME280;36361;38.954;-9.002;2023-04-03T00:25:48;101272.59;;;14.69;50.59
50434;BME280;36361;38.954;-9.002;2023-04-03T00:26:48;101270.25;;;14.54;50.75
50434;BME280;36361;38.954;-9.002;2023-04-03T00:27:50;101279.16;;;14.68;50.96
50434;BME280;36361;38.954;-9.002;2023-04-03T00:28:51;101272.28;;;14.59;51.85
50434;BME280;36361;38.954;-9.002;2023-04-03T00:29:54;101271.69;;;14.75;51.19
50434;BME280;36361;38.954;-9.002;2023-04-03T00:30:56;101269.00;;;14.50;52.09
50434;BME280;36361;38.954;-9.002;2023-04-03T00:31:57;101266.66;;;14.72;51.36
50434;BME280;36361;38.954;-9.002;2023-04-03T00:32:58;101273.19;;;14.52;51.58
50434;BME280;36361;38.954;-9.002;2023-04-03T00:34:01;101267.28;;;14.56;51.80
50434;BME280;36361;38.954;-9.002;2023-04-03T00:35:02;101271.31;;;14.28;53.21
50434;BME280;36361;38.954;-9.002;2023-04-03T00:36:09;101265.53;;;14.18;53.11
50434;BME280;36361;38.954;-9.002;2023-04-03T00:37:11;101265.84;;;14.28;52.94
50434;BME280;36361;38.954;-9.002;2023-04-03T00:38:11;101265.22;;;14.44;53.07
50434;BME280;36361;38.954;-9.002;2023-04-03T00:39:12;101259.75;;;14.44;53.27
50434;BME280;36361;38.954;-9.002;2023-04-03T00:40:14;101264.53;;;14.31;53.68
50434;BME280;36361;38.954;-9.002;2023-04-03T00:41:15;101259.88;;;14.13;54.48
50434;BME280;36361;38.954;-9.002;2023-04-03T00:42:16;101258.75;;;13.95;56.17
50434;BME280;36361;38.954;-9.002;2023-04-03T00:43:23;101264.28;;;14.14;55.74
50434;BME280;36361;38.954;-9.002;2023-04-03T00:46:31;101260.69;;;14.38;53.90
50434;BME280;36361;38.954;-9.002;2023-04-03T00:47:32;101256.28;;;14.12;55.40
50434;BME280;36361;38.954;-9.002;2023-04-03T00:48:44;101257.41;;;14.30;54.57
50434;BME280;36361;38.954;-9.002;2023-04-03T00:49:45;101250.47;;;14.27;53.88
50434;BME280;36361;38.954;-9.002;2023-04-03T00:50:46;101250.44;;;14.09;55.29
50434;BME280;36361;38.954;-9.002;2023-04-03T00:51:48;101250.81;;;14.12;54.69
50434;BME280;36361;38.954;-9.002;2023-04-03T00:52:49;101246.56;;;14.16;55.22
50434;BME280;36361;38.954;-9.002;2023-04-03T00:53:55;101247.03;;;14.13;55.67
50434;BME280;36361;38.954;-9.002;2023-04-03T00:55:02;101244.06;;;14.15;56.62
50434;BME280;36361;38.954;-9.002;2023-04-03T00:56:10;101242.06;;;14.04;56.60
50434;BME280;36361;38.954;-9.002;2023-04-03T00:57:14;101242.78;;;14.17;55.69
50434;BME280;36361;38.954;-9.002;2023-04-03T00:58:17;101249.84;;;14.25;56.17
50434;BME280;36361;38.954;-9.002;2023-04-03T00:59:34;101239.59;;;13.95;56.35
50434;BME280;36361;38.954;-9.002;2023-04-03T01:00:38;101229.84;;;13.81;57.03
50434;BME280;36361;38.954;-9.002;2023-04-03T01:01:41;101233.78;;;13.60;57.83
50434;BME280;36361;38.954;-9.002;2023-04-03T01:02:42;101238.41;;;13.60;58.26
50434;BME280;36361;38.954;-9.002;2023-04-03T01:03:45;101242.13;;;13.72;57.87
50434;BME280;36361;38.954;-9.002;2023-04-03T01:04:46;101236.47;;;13.67;58.11
50434;BME280;36361;38.954;-9.002;2023-04-03T01:05:47;101235.81;;;13.97;57.52
50434;BME280;36361;38.954;-9.002;2023-04-03T01:06:48;101244.47;;;13.93;57.82
50434;BME280;36361;38.954;-9.002;2023-04-03T01:07:49;101238.91;;;13.82;57.88
50434;BME280;36361;38.954;-9.002;2023-04-03T01:08:52;101238.38;;;13.66;59.92
50434;BME280;36361;38.954;-9.002;2023-04-03T01:09:57;101239.09;;;13.80;58.47
50434;BME280;36361;38.954;-9.002;2023-04-03T01:10:58;101240.28;;;13.66;58.82
50434;BME280;36361;38.954;-9.002;2023-04-03T01:12:14;101237.22;;;13.81;58.58
50434;BME280;36361;38.954;-9.002;2023-04-03T01:13:28;101234.34;;;13.69;59.50
50434;BME280;36361;38.954;-9.002;2023-04-03T01:14:30;101232.41;;;13.76;60.44
50434;BME280;36361;38.954;-9.002;2023-04-03T01:15:30;101229.41;;;13.84;59.91
50434;BME280;36361;38.954;-9.002;2023-04-03T01:16:35;101228.88;;;13.69;59.61
50434;BME280;36361;38.954;-9.002;2023-04-03T01:17:42;101221.78;;;13.61;61.78
50434;BME280;36361;38.954;-9.002;2023-04-03T01:18:43;101224.81;;;13.53;62.61
50434;BME280;36361;38.954;-9.002;2023-04-03T01:22:33;101217.72;;;13.95;62.26
50434;BME280;36361;38.954;-9.002;2023-04-03T01:25:11;101207.13;;;13.56;64.50
50434;BME280;36361;38.954;-9.002;2023-04-03T01:26:12;101202.88;;;13.85;62.18
50434;BME280;36361;38.954;-9.002;2023-04-03T01:27:13;101202.19;;;13.89;61.63
50434;BME280;36361;38.954;-9.002;2023-04-03T01:28:18;101202.88;;;13.60;65.75
50434;BME280;36361;38.954;-9.002;2023-04-03T01:29:19;101201.53;;;13.69;64.62
50434;BME280;36361;38.954;-9.002;2023-04-03T01:30:25;101206.06;;;13.57;65.32
50434;BME280;36361;38.954;-9.002;2023-04-03T01:32:35;101188.84;;;13.50;66.34
50434;BME280;36361;38.954;-9.002;2023-04-03T01:33:37;101194.50;;;13.55;66.10
50434;BME280;36361;38.954;-9.002;2023-04-03T01:34:38;101200.06;;;13.42;67.96
50434;BME280;36361;38.954;-9.002;2023-04-03T01:35:39;101187.06;;;13.37;68.67
50434;BME280;36361;38.954;-9.002;2023-04-03T01:36:40;101200.47;;;13.45;67.88
50434;BME280;36361;38.954;-9.002;2023-04-03T01:37:41;101197.06;;;13.50;66.90
50434;BME280;36361;38.954;-9.002;2023-04-03T01:38:42;101192.84;;;13.54;66.08
50434;BME280;36361;38.954;-9.002;2023-04-03T01:39:42;101188.69;;;13.45;67.39
50434;BME280;36361;38.954;-9.002;2023-04-03T01:40:43;101185.31;;;13.43;67.78
50434;BME280;36361;38.954;-9.002;2023-04-03T01:41:44;101186.31;;;13.55;66.71
50434;BME280;36361;38.954;-9.002;2023-04-03T01:42:55;101183.84;;;13.47;67.91
50434;BME280;36361;38.954;-9.002;2023-04-03T01:43:56;101177.97;;;13.43;67.77
50434;BME280;36361;38.954;-9.002;2023-04-03T01:44:57;101184.44;;;13.49;67.74
50434;BME280;36361;38.954;-9.002;2023-04-03T01:45:57;101179.34;;;13.52;67.80
50434;BME280;36361;38.954;-9.002;2023-04-03T01:46:58;101179.34;;;13.52;67.34
50434;BME280;36361;38.954;-9.002;2023-04-03T01:48:01;101188.44;;;13.21;70.35
50434;BME280;36361;38.954;-9.002;2023-04-03T01:49:02;101183.56;;;13.55;69.14
50434;BME280;36361;38.954;-9.002;2023-04-03T01:50:03;101185.25;;;13.56;69.02
50434;BME280;36361;38.954;-9.002;2023-04-03T01:51:06;101180.75;;;13.36;69.99
50434;BME280;36361;38.954;-9.002;2023-04-03T01:52:07;101182.84;;;13.34;70.64
50434;BME280;36361;38.954;-9.002;2023-04-03T01:53:12;101178.97;;;13.49;69.57
50434;BME280;36361;38.954;-9.002;2023-04-03T01:54:13;101178.47;;;13.58;70.01
50434;BME280;36361;38.954;-9.002;2023-04-03T01:55:14;101186.44;;;13.60;68.91
50434;BME280;36361;38.954;-9.002;2023-04-03T01:56:15;101177.59;;;13.64;68.48
50434;BME280;36361;38.954;-9.002;2023-04-03T01:57:19;101177.13;;;13.68;68.23
50434;BME280;36361;38.954;-9.002;2023-04-03T01:58:20;101179.66;;;13.44;69.40
50434;BME280;36361;38.954;-9.002;2023-04-03T01:59:22;101174.47;;;13.36;70.75
50434;BME280;36361;38.954;-9.002;2023-04-03T02:00:35;101171.28;;;13.39;68.41
50434;BME280;36361;38.954;-9.002;2023-04-03T02:01:36;101173.44;;;13.30;69.83
50434;BME280;36361;38.954;-9.002;2023-04-03T02:02:37;101168.56;;;13.32;70.68
50434;BME280;36361;38.954;-9.002;2023-04-03T02:03:37;101173.16;;;13.38;69.39
50434;BME280;36361;38.954;-9.002;2023-04-03T02:04:38;101169.00;;;13.36;69.60
50434;BME280;36361;38.954;-9.002;2023-04-03T02:05:39;101167.78;;;13.25;69.62
50434;BME280;36361;38.954;-9.002;2023-04-03T02:06:40;101158.47;;;13.33;69.43
50434;BME280;36361;38.954;-9.002;2023-04-03T02:07:41;101166.81;;;13.45;68.36
50434;BME280;36361;38.954;-9.002;2023-04-03T02:08:42;101171.03;;;13.41;69.24
50434;BME280;36361;38.954;-9.002;2023-04-03T02:09:43;101152.84;;;13.53;66.84
50434;BME280;36361;38.954;-9.002;2023-04-03T02:10:46;101163.03;;;13.46;66.71
50434;BME280;36361;38.954;-9.002;2023-04-03T02:11:47;101161.50;;;13.50;66.54
50434;BME280;36361;38.954;-9.002;2023-04-03T02:12:48;101157.34;;;13.72;65.44
50434;BME280;36361;38.954;-9.002;2023-04-03T02:13:49;101154.13;;;13.75;64.85
50434;BME280;36361;38.954;-9.002;2023-04-03T02:14:50;101162.00;;;13.90;63.36
50434;BME280;36361;38.954;-9.002;2023-04-03T02:15:51;101159.94;;;13.60;64.20
50434;BME280;36361;38.954;-9.002;2023-04-03T02:16:51;101156.38;;;13.60;64.53
50434;BME280;36361;38.954;-9.002;2023-04-03T02:17:55;101155.09;;;13.62;64.60
50434;BME280;36361;38.954;-9.002;2023-04-03T02:18:56;101155.31;;;13.61;66.16
50434;BME280;36361;38.954;-9.002;2023-04-03T02:19:57;101150.66;;;13.61;65.28
50434;BME280;36361;38.954;-9.002;2023-04-03T02:20:57;101153.34;;;13.43;67.29
50434;BME280;36361;38.954;-9.002;2023-04-03T02:21:58;101156.78;;;13.38;66.61
50434;BME280;36361;38.954;-9.002;2023-04-03T02:22:59;101147.22;;;13.48;66.71
50434;BME280;36361;38.954;-9.002;2023-04-03T02:24:00;101156.66;;;13.52;63.81
50434;BME280;36361;38.954;-9.002;2023-04-03T02:25:01;101148.56;;;13.63;62.02
50434;BME280;36361;38.954;-9.002;2023-04-03T02:26:13;101153.72;;;13.53;61.85
50434;BME280;36361;38.954;-9.002;2023-04-03T02:27:13;101152.81;;;13.59;61.42
50434;BME280;36361;38.954;-9.002;2023-04-03T02:28:15;101148.16;;;13.60;62.40
50434;BME280;36361;38.954;-9.002;2023-04-03T02:29:15;101153.25;;;13.81;61.02
50434;BME280;36361;38.954;-9.002;2023-04-03T02:30:16;101145.19;;;13.61;61.70
50434;BME280;36361;38.954;-9.002;2023-04-03T02:31:17;101144.38;;;13.61;61.87
50434;BME280;36361;38.954;-9.002;2023-04-03T02:32:20;101146.63;;;13.46;62.19
50434;BME280;36361;38.954;-9.002;2023-04-03T02:33:21;101142.97;;;13.52;61.76
50434;BME280;36361;38.954;-9.002;2023-04-03T02:34:22;101140.56;;;13.62;62.75
50434;BME280;36361;38.954;-9.002;2023-04-03T02:35:24;101141.03;;;13.59;61.84
50434;BME280;36361;38.954;-9.002;2023-04-03T02:36:25;101137.84;;;13.62;62.29
50434;BME280;36361;38.954;-9.002;2023-04-03T02:37:30;101144.81;;;13.58;62.65
50434;BME280;36361;38.954;-9.002;2023-04-03T02:38:31;101132.16;;;13.38;64.94
50434;BME280;36361;38.954;-9.002;2023-04-03T02:39:31;101143.72;;;13.41;64.14
50434;BME280;36361;38.954;-9.002;2023-04-03T02:40:33;101146.03;;;13.62;62.90
50434;BME280;36361;38.954;-9.002;2023-04-03T02:41:34;101140.84;;;13.79;60.76
50434;BME280;36361;38.954;-9.002;2023-04-03T02:42:40;101141.47;;;13.56;61.19
50434;BME280;36361;38.954;-9.002;2023-04-03T02:43:40;101146.44;;;13.65;61.73
50434;BME280;36361;38.954;-9.002;2023-04-03T02:44:41;101143.03;;;13.70;61.92
50434;BME280;36361;38.954;-9.002;2023-04-03T02:45:43;101140.78;;;13.85;61.03
50434;BME280;36361;38.954;-9.002;2023-04-03T02:46:45;101135.50;;;13.41;61.76
50434;BME280;36361;38.954;-9.002;2023-04-03T02:47:45;101134.91;;;13.38;63.25
50434;BME280;36361;38.954;-9.002;2023-04-03T02:48:46;101135.56;;;13.59;62.61
50434;BME280;36361;38.954;-9.002;2023-04-03T02:49:47;101138.91;;;13.61;62.00
50434;BME280;36361;38.954;-9.002;2023-04-03T02:50:47;101136.09;;;13.68;62.68
50434;BME280;36361;38.954;-9.002;2023-04-03T02:51:48;101131.97;;;13.83;62.06
50434;BME280;36361;38.954;-9.002;2023-04-03T02:52:49;101128.25;;;13.53;64.50
50434;BME280;36361;38.954;-9.002;2023-04-03T02:53:50;101128.91;;;13.73;63.20
50434;BME280;36361;38.954;-9.002;2023-04-03T02:54:54;101131.34;;;13.63;64.26
50434;BME280;36361;38.954;-9.002;2023-04-03T02:55:55;101126.28;;;13.60;64.27
50434;BME280;36361;38.954;-9.002;2023-04-03T02:56:56;101125.69;;;13.58;64.99
50434;BME280;36361;38.954;-9.002;2023-04-03T02:57:58;101122.66;;;13.66;64.06
50434;BME280;36361;38.954;-9.002;2023-04-03T02:58:59;101125.25;;;13.79;62.54
50434;BME280;36361;38.954;-9.002;2023-04-03T03:00:07;101117.81;;;13.68;62.58
50434;BME280;36361;38.954;-9.002;2023-04-03T03:01:08;101115.25;;;13.73;62.45
50434;BME280;36361;38.954;-9.002;2023-04-03T03:02:09;101113.63;;;13.41;63.14
50434;BME280;36361;38.954;-9.002;2023-04-03T03:03:10;101106.44;;;13.46;62.74
50434;BME280;36361;38.954;-9.002;2023-04-03T03:04:11;101118.66;;;13.44;62.61
50434;BME280;36361;38.954;-9.002;2023-04-03T03:05:12;101114.41;;;13.48;62.62
50434;BME280;36361;38.954;-9.002;2023-04-03T03:06:15;101121.13;;;13.70;61.12
50434;BME280;36361;38.954;-9.002;2023-04-03T03:07:16;101121.78;;;13.72;60.90
50434;BME280;36361;38.954;-9.002;2023-04-03T03:08:17;101121.13;;;13.70;59.04
50434;BME280;36361;38.954;-9.002;2023-04-03T03:09:20;101111.72;;;13.66;58.87
50434;BME280;36361;38.954;-9.002;2023-04-03T03:10:21;101114.72;;;13.83;57.48
50434;BME280;36361;38.954;-9.002;2023-04-03T03:11:22;101112.53;;;13.91;57.21
50434;BME280;36361;38.954;-9.002;2023-04-03T03:12:23;101111.59;;;13.98;57.04
50434;BME280;36361;38.954;-9.002;2023-04-03T03:13:25;101114.81;;;14.13;56.35
50434;BME280;36361;38.954;-9.002;2023-04-03T03:14:25;101114.97;;;14.18;55.31
50434;BME280;36361;38.954;-9.002;2023-04-03T03:15:26;101115.94;;;14.23;55.45
50434;BME280;36361;38.954;-9.002;2023-04-03T03:16:27;101116.34;;;14.27;55.46
50434;BME280;36361;38.954;-9.002;2023-04-03T03:17:27;101114.72;;;14.56;54.82
50434;BME280;36361;38.954;-9.002;2023-04-03T03:18:28;101112.00;;;14.56;55.20
50434;BME280;36361;38.954;-9.002;2023-04-03T03:19:29;101114.03;;;14.42;55.48
50434;BME280;36361;38.954;-9.002;2023-04-03T03:20:31;101118.91;;;14.59;54.88
50434;BME280;36361;38.954;-9.002;2023-04-03T03:21:32;101118.16;;;14.51;56.47
50434;BME280;36361;38.954;-9.002;2023-04-03T03:22:33;101110.78;;;14.15;58.59
50434;BME280;36361;38.954;-9.002;2023-04-03T03:23:37;101111.22;;;13.94;59.08
50434;BME280;36361;38.954;-9.002;2023-04-03T03:24:38;101115.50;;;13.90;61.18
50434;BME280;36361;38.954;-9.002;2023-04-03T03:25:40;101109.25;;;14.19;61.03
50434;BME280;36361;38.954;-9.002;2023-04-03T03:26:42;101114.03;;;14.24;59.33
50434;BME280;36361;38.954;-9.002;2023-04-03T03:27:43;101104.16;;;14.23;60.32
50434;BME280;36361;38.954;-9.002;2023-04-03T03:28:43;101104.31;;;14.10;61.08
50434;BME280;36361;38.954;-9.002;2023-04-03T03:29:45;101103.25;;;13.92;61.82
50434;BME280;36361;38.954;-9.002;2023-04-03T03:30:47;101104.75;;;13.88;62.08
50434;BME280;36361;38.954;-9.002;2023-04-03T03:31:48;101107.31;;;13.65;63.62
50434;BME280;36361;38.954;-9.002;2023-04-03T03:32:49;101099.88;;;13.54;64.28
50434;BME280;36361;38.954;-9.002;2023-04-03T03:33:50;101101.91;;;13.58;64.99
50434;BME280;36361;38.954;-9.002;2023-04-03T03:34:50;101101.53;;;13.55;64.80
50434;BME280;36361;38.954;-9.002;2023-04-03T03:35:52;101097.78;;;13.92;61.89
50434;BME280;36361;38.954;-9.002;2023-04-03T03:36:53;101093.50;;;13.78;63.94
50434;BME280;36361;38.954;-9.002;2023-04-03T03:37:54;101098.00;;;13.48;65.47
50434;BME280;36361;38.954;-9.002;2023-04-03T03:38:54;101094.78;;;13.32;69.38
50434;BME280;36361;38.954;-9.002;2023-04-03T03:39:55;101096.50;;;13.52;68.25
50434;BME280;36361;38.954;-9.002;2023-04-03T03:40:56;101093.94;;;13.57;64.61
50434;BME280;36361;38.954;-9.002;2023-04-03T03:41:58;101094.06;;;13.62;65.73
50434;BME280;36361;38.954;-9.002;2023-04-03T03:42:59;101088.59;;;13.62;66.30
50434;BME280;36361;38.954;-9.002;2023-04-03T03:43:59;101093.50;;;13.78;65.05
50434;BME280;36361;38.954;-9.002;2023-04-03T03:45:03;101087.44;;;13.76;64.23
50434;BME280;36361;38.954;-9.002;2023-04-03T03:46:04;101087.38;;;13.83;64.14
50434;BME280;36361;38.954;-9.002;2023-04-03T03:47:05;101092.53;;;13.48;65.71
50434;BME280;36361;38.954;-9.002;2023-04-03T03:48:06;101089.03;;;13.41;67.01
50434;BME280;36361;38.954;-9.002;2023-04-03T03:49:07;101088.66;;;13.37;67.60
50434;BME280;36361;38.954;-9.002;2023-04-03T03:50:08;101092.69;;;13.53;66.67
50434;BME280;36361;38.954;-9.002;2023-04-03T03:51:09;101093.00;;;13.45;64.94
50434;BME280;36361;38.954;-9.002;2023-04-03T03:52:11;101090.28;;;13.45;64.86
50434;BME280;36361;38.954;-9.002;2023-04-03T03:53:12;101084.81;;;13.45;66.87
50434;BME280;36361;38.954;-9.002;2023-04-03T03:54:13;101087.72;;;13.68;65.69
50434;BME280;36361;38.954;-9.002;2023-04-03T03:55:13;101083.59;;;13.59;66.38
50434;BME280;36361;38.954;-9.002;2023-04-03T03:56:15;101078.56;;;13.37;66.42
50434;BME280;36361;38.954;-9.002;2023-04-03T03:57:16;101075.53;;;13.46;66.41
50434;BME280;36361;38.954;-9.002;2023-04-03T03:58:17;101082.84;;;13.70;65.44
50434;BME280;36361;38.954;-9.002;2023-04-03T03:59:18;101074.25;;;13.48;66.71
50434;BME280;36361;38.954;-9.002;2023-04-03T04:00:22;101081.16;;;13.51;66.36
50434;BME280;36361;38.954;-9.002;2023-04-03T04:01:27;101070.84;;;13.71;64.34
50434;BME280;36361;38.954;-9.002;2023-04-03T04:02:28;101075.53;;;13.46;66.07
50434;BME280;36361;38.954;-9.002;2023-04-03T04:03:29;101077.34;;;13.52;66.01
50434;BME280;36361;38.954;-9.002;2023-04-03T04:04:30;101075.22;;;13.35;67.49
50434;BME280;36361;38.954;-9.002;2023-04-03T04:05:31;101070.78;;;13.34;67.51
50434;BME280;36361;38.954;-9.002;2023-04-03T04:06:34;101068.41;;;13.45;65.38
50434;BME280;36361;38.954;-9.002;2023-04-03T04:07:38;101064.59;;;13.46;65.52
50434;BME280;36361;38.954;-9.002;2023-04-03T04:08:39;101066.84;;;13.30;67.69
50434;BME280;36361;38.954;-9.002;2023-04-03T04:09:42;101062.25;;;13.24;69.29
50434;BME280;36361;38.954;-9.002;2023-04-03T04:10:43;101070.31;;;13.19;68.66
50434;BME280;36361;38.954;-9.002;2023-04-03T04:11:46;101062.72;;;13.21;69.30
50434;BME280;36361;38.954;-9.002;2023-04-03T04:12:48;101060.53;;;13.30;68.60
50434;BME280;36361;38.954;-9.002;2023-04-03T04:13:50;101057.25;;;13.21;68.81
50434;BME280;36361;38.954;-9.002;2023-04-03T04:14:53;101059.84;;;13.34;68.91
50434;BME280;36361;38.954;-9.002;2023-04-03T04:15:54;101056.72;;;13.74;65.82
50434;BME280;36361;38.954;-9.002;2023-04-03T04:16:55;101062.84;;;13.51;67.44
50434;BME280;36361;38.954;-9.002;2023-04-03T04:17:59;101056.72;;;13.56;64.94
50434;BME280;36361;38.954;-9.002;2023-04-03T04:19:00;101065.38;;;13.89;62.91
50434;BME280;36361;38.954;-9.002;2023-04-03T04:20:02;101058.69;;;13.67;63.31
50434;BME280;36361;38.954;-9.002;2023-04-03T04:21:03;101060.81;;;13.65;64.53
50434;BME280;36361;38.954;-9.002;2023-04-03T04:22:05;101069.81;;;13.90;63.35
50434;BME280;36361;38.954;-9.002;2023-04-03T04:23:07;101068.88;;;13.78;63.27
50434;BME280;36361;38.954;-9.002;2023-04-03T04:24:08;101066.63;;;13.93;62.57
50434;BME280;36361;38.954;-9.002;2023-04-03T04:25:09;101072.56;;;13.90;62.21
50434;BME280;36361;38.954;-9.002;2023-04-03T04:26:12;101065.47;;;14.01;62.47
50434;BME280;36361;38.954;-9.002;2023-04-03T04:27:14;101070.25;;;13.87;63.15
50434;BME280;36361;38.954;-9.002;2023-04-03T04:28:17;101066.22;;;13.72;65.07
50434;BME280;36361;38.954;-9.002;2023-04-03T04:29:18;101062.97;;;14.00;62.96
50434;BME280;36361;38.954;-9.002;2023-04-03T04:30:22;101070.41;;;13.92;63.08
50434;BME280;36361;38.954;-9.002;2023-04-03T04:31:24;101069.47;;;13.80;64.77
50434;BME280;36361;38.954;-9.002;2023-04-03T04:32:25;101058.72;;;13.85;64.87
50434;BME280;36361;38.954;-9.002;2023-04-03T04:33:26;101070.13;;;14.01;62.80
50434;BME280;36361;38.954;-9.002;2023-04-03T04:34:27;101070.84;;;13.89;63.67
50434;BME280;36361;38.954;-9.002;2023-04-03T04:35:28;101067.97;;;14.03;63.30
50434;BME280;36361;38.954;-9.002;2023-04-03T04:36:29;101068.75;;;13.91;64.17
50434;BME280;36361;38.954;-9.002;2023-04-03T04:37:30;101078.16;;;13.95;63.79
50434;BME280;36361;38.954;-9.002;2023-04-03T04:38:31;101077.56;;;13.93;63.68
50434;BME280;36361;38.954;-9.002;2023-04-03T04:39:32;101074.34;;;13.78;64.43
50434;BME280;36361;38.954;-9.002;2023-04-03T04:40:33;101085.38;;;13.72;67.30
50434;BME280;36361;38.954;-9.002;2023-04-03T04:41:33;101080.75;;;13.72;66.10
50434;BME280;36361;38.954;-9.002;2023-04-03T04:42:36;101077.25;;;13.83;64.23
50434;BME280;36361;38.954;-9.002;2023-04-03T04:43:38;101082.88;;;13.88;63.65
50434;BME280;36361;38.954;-9.002;2023-04-03T04:44:39;101078.16;;;13.77;64.34
50434;BME280;36361;38.954;-9.002;2023-04-03T04:45:41;101084.66;;;13.58;66.46
50434;BME280;36361;38.954;-9.002;2023-04-03T04:46:42;101077.22;;;13.47;66.85
50434;BME280;36361;38.954;-9.002;2023-04-03T04:47:43;101079.19;;;13.58;65.99
50434;BME280;36361;38.954;-9.002;2023-04-03T04:48:44;101080.22;;;13.38;68.00
50434;BME280;36361;38.954;-9.002;2023-04-03T04:49:47;101079.63;;;13.36;68.99
50434;BME280;36361;38.954;-9.002;2023-04-03T04:50:48;101083.09;;;13.44;66.61
50434;BME280;36361;38.954;-9.002;2023-04-03T04:51:49;101080.59;;;13.42;67.74
50434;BME280;36361;38.954;-9.002;2023-04-03T04:52:53;101073.69;;;13.40;67.74
50434;BME280;36361;38.954;-9.002;2023-04-03T04:53:56;101074.19;;;13.55;68.67
50434;BME280;36361;38.954;-9.002;2023-04-03T04:54:57;101079.34;;;13.45;68.82
50434;BME280;36361;38.954;-9.002;2023-04-03T04:55:58;101073.19;;;13.49;66.90
50434;BME280;36361;38.954;-9.002;2023-04-03T04:56:59;101076.47;;;13.58;66.13
50434;BME280;36361;38.954;-9.002;2023-04-03T04:58:01;101067.19;;;13.59;66.53
50434;BME280;36361;38.954;-9.002;2023-04-03T04:59:02;101071.28;;;13.50;68.02
50434;BME280;36361;38.954;-9.002;2023-04-03T05:00:04;101062.75;;;13.40;69.02
50434;BME280;36361;38.954;-9.002;2023-04-03T05:01:07;101063.50;;;13.28;69.82
50434;BME280;36361;38.954;-9.002;2023-04-03T05:02:10;101069.56;;;13.30;69.28
50434;BME280;36361;38.954;-9.002;2023-04-03T05:03:12;101065.94;;;13.36;68.95
50434;BME280;36361;38.954;-9.002;2023-04-03T05:04:14;101059.38;;;13.13;71.46
50434;BME280;36361;38.954;-9.002;2023-04-03T05:05:16;101061.59;;;12.97;72.50
50434;BME280;36361;38.954;-9.002;2023-04-03T05:06:16;101066.63;;;13.00;73.67
50434;BME280;36361;38.954;-9.002;2023-04-03T05:07:17;101058.94;;;12.91;73.74
50434;BME280;36361;38.954;-9.002;2023-04-03T05:08:18;101063.38;;;13.17;72.07
50434;BME280;36361;38.954;-9.002;2023-04-03T05:09:19;101063.44;;;13.35;70.67
50434;BME280;36361;38.954;-9.002;2023-04-03T05:10:21;101056.81;;;13.43;70.24
50434;BME280;36361;38.954;-9.002;2023-04-03T05:11:22;101056.22;;;13.41;70.12
50434;BME280;36361;38.954;-9.002;2023-04-03T05:12:25;101051.22;;;13.37;68.66
50434;BME280;36361;38.954;-9.002;2023-04-03T05:13:30;101051.63;;;13.34;68.28
50434;BME280;36361;38.954;-9.002;2023-04-03T05:14:31;101046.94;;;13.42;67.85
50434;BME280;36361;38.954;-9.002;2023-04-03T05:15:37;101047.03;;;13.35;69.36
50434;BME280;36361;38.954;-9.002;2023-04-03T05:16:38;101043.34;;;13.23;70.77
50434;BME280;36361;38.954;-9.002;2023-04-03T05:17:40;101037.50;;;13.44;69.80
50434;BME280;36361;38.954;-9.002;2023-04-03T05:18:49;101044.22;;;13.42;69.87
50434;BME280;36361;38.954;-9.002;2023-04-03T05:19:54;101040.38;;;13.24;70.27
50434;BME280;36361;38.954;-9.002;2023-04-03T05:20:56;101036.19;;;13.47;68.83
50434;BME280;36361;38.954;-9.002;2023-04-03T05:21:59;101044.97;;;13.30;70.47
50434;BME280;36361;38.954;-9.002;2023-04-03T05:23:02;101034.50;;;13.27;70.57
50434;BME280;36361;38.954;-9.002;2023-04-03T05:24:03;101056.88;;;13.11;70.94
50434;BME280;36361;38.954;-9.002;2023-04-03T05:25:08;101050.66;;;13.29;70.55
50434;BME280;36361;38.954;-9.002;2023-04-03T05:26:10;101043.22;;;13.11;72.31
50434;BME280;36361;38.954;-9.002;2023-04-03T05:27:11;101048.22;;;13.14;71.86